sensor_id;sensor_type;location;lat;lon;timestamp;P1;durP1;ratioP1;P2;durP2;ratioP2
68140;SDS011;54941;52.220;104.306;2024-01-25T00:02:09;53.47;;;25.40;;
68140;SDS011;54941;52.220;104.306;2024-01-25T00:04:35;55.40;;;22.45;;
68140;SDS011;54941;52.220;104.306;2024-01-25T00:07:02;49.47;;;20.48;;
68140;SDS011;54941;52.220;104.306;2024-01-25T00:09:28;49.70;;;20.15;;
68140;SDS011;54941;52.220;104.306;2024-01-25T00:11:54;49.42;;;21.33;;
68140;SDS011;54941;52.220;104.306;2024-01-25T00:14:22;46.42;;;20.73;;
68140;SDS011;54941;52.220;104.306;2024-01-25T00:16:48;46.28;;;22.63;;
68140;SDS011;54941;52.220;104.306;2024-01-25T00:19:14;50.60;;;21.20;;
68140;SDS011;54941;52.220;104.306;2024-01-25T00:21:41;48.65;;;19.75;;
68140;SDS011;54941;52.220;104.306;2024-01-25T00:24:08;47.20;;;20.67;;
68140;SDS011;54941;52.220;104.306;2024-01-25T00:26:34;53.47;;;24.63;;
68140;SDS011;54941;52.220;104.306;2024-01-25T00:29:00;46.00;;;22.35;;
68140;SDS011;54941;52.220;104.306;2024-01-25T00:31:27;50.40;;;22.17;;
68140;SDS011;54941;52.220;104.306;2024-01-25T00:33:54;51.13;;;21.67;;
68140;SDS011;54941;52.220;104.306;2024-01-25T00:36:20;53.00;;;22.13;;
68140;SDS011;54941;52.220;104.306;2024-01-25T00:38:47;59.05;;;24.33;;
68140;SDS011;54941;52.220;104.306;2024-01-25T00:41:14;51.78;;;20.27;;
68140;SDS011;54941;52.220;104.306;2024-01-25T00:43:43;58.63;;;24.48;;
68140;SDS011;54941;52.220;104.306;2024-01-25T00:46:10;48.67;;;21.02;;
68140;SDS011;54941;52.220;104.306;2024-01-25T00:48:38;51.05;;;24.83;;
68140;SDS011;54941;52.220;104.306;2024-01-25T00:51:06;38.58;;;20.40;;
68140;SDS011;54941;52.220;104.306;2024-01-25T00:53:33;53.47;;;22.95;;
68140;SDS011;54941;52.220;104.306;2024-01-25T00:56:00;45.78;;;22.88;;
68140;SDS011;54941;52.220;104.306;2024-01-25T00:58:27;49.78;;;23.77;;
68140;SDS011;54941;52.220;104.306;2024-01-25T01:00:53;48.33;;;20.58;;
68140;SDS011;54941;52.220;104.306;2024-01-25T01:03:20;53.28;;;21.08;;
68140;SDS011;54941;52.220;104.306;2024-01-25T01:05:48;48.65;;;21.20;;
68140;SDS011;54941;52.220;104.306;2024-01-25T01:08:15;49.33;;;24.52;;
68140;SDS011;54941;52.220;104.306;2024-01-25T01:10:42;46.28;;;21.58;;
68140;SDS011;54941;52.220;104.306;2024-01-25T01:13:09;54.33;;;24.38;;
68140;SDS011;54941;52.220;104.306;2024-01-25T01:15:35;50.05;;;23.13;;
68140;SDS011;54941;52.220;104.306;2024-01-25T01:18:02;57.28;;;21.58;;
68140;SDS011;54941;52.220;104.306;2024-01-25T01:20:28;50.70;;;26.98;;
68140;SDS011;54941;52.220;104.306;2024-01-25T01:22:56;48.65;;;23.80;;
68140;SDS011;54941;52.220;104.306;2024-01-25T01:25:22;57.63;;;25.48;;
68140;SDS011;54941;52.220;104.306;2024-01-25T01:27:48;62.20;;;25.30;;
68140;SDS011;54941;52.220;104.306;2024-01-25T01:30:14;50.50;;;23.88;;
68140;SDS011;54941;52.220;104.306;2024-01-25T01:32:40;53.72;;;24.38;;
68140;SDS011;54941;52.220;104.306;2024-01-25T01:35:07;54.53;;;24.75;;
68140;SDS011;54941;52.220;104.306;2024-01-25T01:37:33;56.42;;;26.42;;
68140;SDS011;54941;52.220;104.306;2024-01-25T01:40:01;55.00;;;23.20;;
68140;SDS011;54941;52.220;104.306;2024-01-25T01:42:27;57.58;;;24.40;;
68140;SDS011;54941;52.220;104.306;2024-01-25T01:44:53;48.78;;;22.80;;
68140;SDS011;54941;52.220;104.306;2024-01-25T01:47:19;51.60;;;21.52;;
68140;SDS011;54941;52.220;104.306;2024-01-25T01:49:46;45.65;;;23.58;;
68140;SDS011;54941;52.220;104.306;2024-01-25T01:52:12;53.33;;;22.08;;
68140;SDS011;54941;52.220;104.306;2024-01-25T01:54:39;51.15;;;23.35;;
68140;SDS011;54941;52.220;104.306;2024-01-25T01:57:08;49.72;;;23.55;;
68140;SDS011;54941;52.220;104.306;2024-01-25T01:59:34;56.92;;;24.25;;
68140;SDS011;54941;52.220;104.306;2024-01-25T02:02:01;51.22;;;20.95;;
68140;SDS011;54941;52.220;104.306;2024-01-25T02:04:27;48.15;;;20.92;;
68140;SDS011;54941;52.220;104.306;2024-01-25T02:06:53;52.65;;;25.65;;
68140;SDS011;54941;52.220;104.306;2024-01-25T02:09:19;55.25;;;24.63;;
68140;SDS011;54941;52.220;104.306;2024-01-25T02:11:45;60.40;;;24.08;;
68140;SDS011;54941;52.220;104.306;2024-01-25T02:14:13;51.35;;;23.30;;
68140;SDS011;54941;52.220;104.306;2024-01-25T02:16:40;46.75;;;23.13;;
68140;SDS011;54941;52.220;104.306;2024-01-25T02:19:06;52.85;;;22.88;;
68140;SDS011;54941;52.220;104.306;2024-01-25T02:21:32;55.03;;;27.30;;
68140;SDS011;54941;52.220;104.306;2024-01-25T02:24:00;54.70;;;24.83;;
68140;SDS011;54941;52.220;104.306;2024-01-25T02:26:26;49.33;;;19.45;;
68140;SDS011;54941;52.220;104.306;2024-01-25T02:28:53;49.55;;;23.00;;
68140;SDS011;54941;52.220;104.306;2024-01-25T02:31:19;52.85;;;22.20;;
68140;SDS011;54941;52.220;104.306;2024-01-25T02:33:45;50.80;;;23.00;;
68140;SDS011;54941;52.220;104.306;2024-01-25T02:36:11;50.15;;;24.30;;
68140;SDS011;54941;52.220;104.306;2024-01-25T02:38:37;46.80;;;22.27;;
68140;SDS011;54941;52.220;104.306;2024-01-25T02:41:05;49.95;;;21.85;;
68140;SDS011;54941;52.220;104.306;2024-01-25T02:43:31;38.88;;;19.23;;
68140;SDS011;54941;52.220;104.306;2024-01-25T02:45:57;45.90;;;20.10;;
68140;SDS011;54941;52.220;104.306;2024-01-25T02:48:23;51.55;;;21.42;;
68140;SDS011;54941;52.220;104.306;2024-01-25T02:50:50;52.55;;;24.60;;
68140;SDS011;54941;52.220;104.306;2024-01-25T02:53:16;45.17;;;21.40;;
68140;SDS011;54941;52.220;104.306;2024-01-25T02:55:43;49.10;;;22.75;;
68140;SDS011;54941;52.220;104.306;2024-01-25T02:58:10;47.60;;;20.02;;
68140;SDS011;54941;52.220;104.306;2024-01-25T03:00:36;42.85;;;18.25;;
68140;SDS011;54941;52.220;104.306;2024-01-25T03:03:03;39.85;;;16.77;;
68140;SDS011;54941;52.220;104.306;2024-01-25T03:05:29;38.42;;;18.42;;
68140;SDS011;54941;52.220;104.306;2024-01-25T03:07:55;38.63;;;19.52;;
68140;SDS011;54941;52.220;104.306;2024-01-25T03:10:21;38.97;;;18.45;;
68140;SDS011;54941;52.220;104.306;2024-01-25T03:12:47;31.48;;;14.27;;
68140;SDS011;54941;52.220;104.306;2024-01-25T03:15:15;34.15;;;15.25;;
68140;SDS011;54941;52.220;104.306;2024-01-25T03:17:41;34.80;;;14.23;;
68140;SDS011;54941;52.220;104.306;2024-01-25T03:20:08;40.10;;;15.70;;
68140;SDS011;54941;52.220;104.306;2024-01-25T03:22:34;34.80;;;15.27;;
68140;SDS011;54941;52.220;104.306;2024-01-25T03:25:01;32.70;;;14.65;;
68140;SDS011;54941;52.220;104.306;2024-01-25T03:27:28;35.30;;;16.58;;
68140;SDS011;54941;52.220;104.306;2024-01-25T03:29:54;40.20;;;17.15;;
68140;SDS011;54941;52.220;104.306;2024-01-25T03:32:22;32.05;;;17.23;;
68140;SDS011;54941;52.220;104.306;2024-01-25T03:34:48;33.85;;;14.73;;
68140;SDS011;54941;52.220;104.306;2024-01-25T03:37:14;37.63;;;13.70;;
68140;SDS011;54941;52.220;104.306;2024-01-25T03:39:41;36.33;;;16.95;;
68140;SDS011;54941;52.220;104.306;2024-01-25T03:42:07;33.63;;;14.60;;
68140;SDS011;54941;52.220;104.306;2024-01-25T03:44:33;30.98;;;15.35;;
68140;SDS011;54941;52.220;104.306;2024-01-25T03:46:59;25.63;;;13.57;;
68140;SDS011;54941;52.220;104.306;2024-01-25T03:49:27;25.38;;;12.25;;
68140;SDS011;54941;52.220;104.306;2024-01-25T03:51:53;25.75;;;8.98;;
68140;SDS011;54941;52.220;104.306;2024-01-25T03:54:19;26.20;;;11.27;;
68140;SDS011;54941;52.220;104.306;2024-01-25T03:56:45;25.23;;;11.82;;
68140;SDS011;54941;52.220;104.306;2024-01-25T03:59:11;24.90;;;11.32;;
68140;SDS011;54941;52.220;104.306;2024-01-25T04:01:42;20.95;;;9.85;;
68140;SDS011;54941;52.220;104.306;2024-01-25T04:04:09;27.50;;;13.15;;
68140;SDS011;54941;52.220;104.306;2024-01-25T04:06:36;24.10;;;10.80;;
68140;SDS011;54941;52.220;104.306;2024-01-25T04:09:03;25.27;;;13.02;;
68140;SDS011;54941;52.220;104.306;2024-01-25T04:11:29;24.02;;;12.30;;
68140;SDS011;54941;52.220;104.306;2024-01-25T04:13:55;27.52;;;12.75;;
68140;SDS011;54941;52.220;104.306;2024-01-25T04:16:21;30.40;;;12.23;;
68140;SDS011;54941;52.220;104.306;2024-01-25T04:18:49;31.05;;;12.80;;
68140;SDS011;54941;52.220;104.306;2024-01-25T04:21:15;28.27;;;13.55;;
68140;SDS011;54941;52.220;104.306;2024-01-25T04:23:42;25.15;;;11.15;;
68140;SDS011;54941;52.220;104.306;2024-01-25T04:26:08;26.02;;;12.07;;
68140;SDS011;54941;52.220;104.306;2024-01-25T04:28:35;22.65;;;10.90;;
68140;SDS011;54941;52.220;104.306;2024-01-25T04:31:01;26.92;;;12.57;;
68140;SDS011;54941;52.220;104.306;2024-01-25T04:33:28;25.42;;;11.93;;
68140;SDS011;54941;52.220;104.306;2024-01-25T04:35:54;23.67;;;11.15;;
68140;SDS011;54941;52.220;104.306;2024-01-25T04:38:20;16.25;;;7.80;;
68140;SDS011;54941;52.220;104.306;2024-01-25T04:40:48;29.70;;;12.43;;
68140;SDS011;54941;52.220;104.306;2024-01-25T04:43:14;26.10;;;12.90;;
68140;SDS011;54941;52.220;104.306;2024-01-25T04:45:40;25.17;;;13.20;;
68140;SDS011;54941;52.220;104.306;2024-01-25T04:48:07;26.48;;;11.73;;
68140;SDS011;54941;52.220;104.306;2024-01-25T04:50:33;27.98;;;12.00;;
68140;SDS011;54941;52.220;104.306;2024-01-25T04:53:01;27.55;;;13.25;;
68140;SDS011;54941;52.220;104.306;2024-01-25T04:55:27;30.65;;;13.93;;
68140;SDS011;54941;52.220;104.306;2024-01-25T04:57:55;30.13;;;13.05;;
68140;SDS011;54941;52.220;104.306;2024-01-25T05:00:21;26.38;;;12.63;;
68140;SDS011;54941;52.220;104.306;2024-01-25T05:02:48;22.40;;;11.38;;
68140;SDS011;54941;52.220;104.306;2024-01-25T05:05:14;21.92;;;11.15;;
68140;SDS011;54941;52.220;104.306;2024-01-25T05:07:40;23.15;;;10.27;;
68140;SDS011;54941;52.220;104.306;2024-01-25T05:10:07;27.02;;;12.60;;
68140;SDS011;54941;52.220;104.306;2024-01-25T05:12:33;20.17;;;9.38;;
68140;SDS011;54941;52.220;104.306;2024-01-25T05:15:01;25.30;;;11.23;;
68140;SDS011;54941;52.220;104.306;2024-01-25T05:17:28;28.60;;;12.77;;
68140;SDS011;54941;52.220;104.306;2024-01-25T05:19:54;21.38;;;11.10;;
68140;SDS011;54941;52.220;104.306;2024-01-25T05:22:20;30.48;;;13.25;;
68140;SDS011;54941;52.220;104.306;2024-01-25T05:24:46;20.67;;;10.52;;
68140;SDS011;54941;52.220;104.306;2024-01-25T05:27:12;20.95;;;9.23;;
68140;SDS011;54941;52.220;104.306;2024-01-25T05:29:39;17.75;;;9.70;;
68140;SDS011;54941;52.220;104.306;2024-01-25T05:32:06;24.92;;;12.15;;
68140;SDS011;54941;52.220;104.306;2024-01-25T05:34:33;20.20;;;10.88;;
68140;SDS011;54941;52.220;104.306;2024-01-25T05:36:59;22.13;;;8.82;;
68140;SDS011;54941;52.220;104.306;2024-01-25T05:39:25;19.38;;;8.88;;
68140;SDS011;54941;52.220;104.306;2024-01-25T05:41:51;20.23;;;10.85;;
68140;SDS011;54941;52.220;104.306;2024-01-25T05:44:17;20.20;;;9.45;;
68140;SDS011;54941;52.220;104.306;2024-01-25T05:46:43;22.13;;;9.55;;
68140;SDS011;54941;52.220;104.306;2024-01-25T05:49:11;19.45;;;9.73;;
68140;SDS011;54941;52.220;104.306;2024-01-25T05:51:37;16.95;;;9.05;;
68140;SDS011;54941;52.220;104.306;2024-01-25T05:54:03;19.42;;;9.45;;
68140;SDS011;54941;52.220;104.306;2024-01-25T05:56:30;23.27;;;10.35;;
68140;SDS011;54941;52.220;104.306;2024-01-25T05:58:56;17.67;;;7.50;;
68140;SDS011;54941;52.220;104.306;2024-01-25T06:01:22;19.45;;;7.63;;
68140;SDS011;54941;52.220;104.306;2024-01-25T06:03:48;12.65;;;7.13;;
68140;SDS011;54941;52.220;104.306;2024-01-25T06:06:16;14.35;;;7.25;;
68140;SDS011;54941;52.220;104.306;2024-01-25T06:08:42;16.55;;;8.30;;
68140;SDS011;54941;52.220;104.306;2024-01-25T06:11:08;18.25;;;8.93;;
68140;SDS011;54941;52.220;104.306;2024-01-25T06:13:34;16.75;;;6.50;;
68140;SDS011;54941;52.220;104.306;2024-01-25T06:16:01;15.77;;;7.10;;
68140;SDS011;54941;52.220;104.306;2024-01-25T06:18:27;13.38;;;5.38;;
68140;SDS011;54941;52.220;104.306;2024-01-25T06:20:53;8.98;;;5.15;;
68140;SDS011;54941;52.220;104.306;2024-01-25T06:23:20;22.88;;;10.23;;
68140;SDS011;54941;52.220;104.306;2024-01-25T06:25:47;19.65;;;8.75;;
68140;SDS011;54941;52.220;104.306;2024-01-25T06:28:13;14.57;;;6.65;;
68140;SDS011;54941;52.220;104.306;2024-01-25T06:30:39;16.77;;;8.95;;
68140;SDS011;54941;52.220;104.306;2024-01-25T06:33:05;15.35;;;6.68;;
68140;SDS011;54941;52.220;104.306;2024-01-25T06:35:31;15.98;;;8.35;;
68140;SDS011;54941;52.220;104.306;2024-01-25T06:37:57;14.30;;;6.85;;
68140;SDS011;54941;52.220;104.306;2024-01-25T06:40:25;22.85;;;9.73;;
68140;SDS011;54941;52.220;104.306;2024-01-25T06:42:51;19.73;;;9.52;;
68140;SDS011;54941;52.220;104.306;2024-01-25T06:45:17;15.35;;;7.75;;
68140;SDS011;54941;52.220;104.306;2024-01-25T06:47:43;17.67;;;8.48;;
68140;SDS011;54941;52.220;104.306;2024-01-25T06:50:10;20.42;;;9.80;;
68140;SDS011;54941;52.220;104.306;2024-01-25T06:52:36;21.98;;;9.23;;
68140;SDS011;54941;52.220;104.306;2024-01-25T06:55:02;26.13;;;11.02;;
68140;SDS011;54941;52.220;104.306;2024-01-25T06:57:30;28.23;;;12.60;;
68140;SDS011;54941;52.220;104.306;2024-01-25T06:59:57;27.13;;;11.35;;
68140;SDS011;54941;52.220;104.306;2024-01-25T07:02:23;30.05;;;13.18;;
68140;SDS011;54941;52.220;104.306;2024-01-25T07:04:49;26.27;;;12.73;;
68140;SDS011;54941;52.220;104.306;2024-01-25T07:07:15;25.80;;;12.38;;
68140;SDS011;54941;52.220;104.306;2024-01-25T07:09:41;27.15;;;13.57;;
68140;SDS011;54941;52.220;104.306;2024-01-25T07:12:07;27.80;;;11.77;;
68140;SDS011;54941;52.220;104.306;2024-01-25T07:14:35;38.08;;;15.68;;
68140;SDS011;54941;52.220;104.306;2024-01-25T07:17:01;29.48;;;13.85;;
68140;SDS011;54941;52.220;104.306;2024-01-25T07:19:27;28.92;;;14.82;;
68140;SDS011;54941;52.220;104.306;2024-01-25T07:21:53;28.60;;;15.90;;
68140;SDS011;54941;52.220;104.306;2024-01-25T07:24:20;33.90;;;19.75;;
68140;SDS011;54941;52.220;104.306;2024-01-25T07:26:46;35.60;;;16.30;;
68140;SDS011;54941;52.220;104.306;2024-01-25T07:29:12;35.58;;;17.05;;
68140;SDS011;54941;52.220;104.306;2024-01-25T07:31:40;44.92;;;16.10;;
68140;SDS011;54941;52.220;104.306;2024-01-25T07:34:06;31.98;;;17.02;;
68140;SDS011;54941;52.220;104.306;2024-01-25T07:36:32;29.88;;;15.48;;
68140;SDS011;54941;52.220;104.306;2024-01-25T07:38:58;39.75;;;15.02;;
68140;SDS011;54941;52.220;104.306;2024-01-25T07:41:24;36.30;;;14.02;;
68140;SDS011;54941;52.220;104.306;2024-01-25T07:43:51;32.03;;;12.25;;
68140;SDS011;54941;52.220;104.306;2024-01-25T07:46:17;27.33;;;13.45;;
68140;SDS011;54941;52.220;104.306;2024-01-25T07:48:45;30.30;;;13.38;;
68140;SDS011;54941;52.220;104.306;2024-01-25T07:51:11;34.78;;;14.18;;
68140;SDS011;54941;52.220;104.306;2024-01-25T07:53:37;28.08;;;12.95;;
68140;SDS011;54941;52.220;104.306;2024-01-25T07:56:04;34.63;;;15.57;;
68140;SDS011;54941;52.220;104.306;2024-01-25T07:58:32;27.15;;;15.35;;
68140;SDS011;54941;52.220;104.306;2024-01-25T08:00:58;33.65;;;14.15;;
68140;SDS011;54941;52.220;104.306;2024-01-25T08:03:24;32.13;;;14.27;;
68140;SDS011;54941;52.220;104.306;2024-01-25T08:05:52;31.80;;;14.65;;
68140;SDS011;54941;52.220;104.306;2024-01-25T08:08:18;30.60;;;15.82;;
68140;SDS011;54941;52.220;104.306;2024-01-25T08:10:44;34.05;;;16.48;;
68140;SDS011;54941;52.220;104.306;2024-01-25T08:13:10;37.28;;;18.15;;
68140;SDS011;54941;52.220;104.306;2024-01-25T08:15:36;38.38;;;16.20;;
68140;SDS011;54941;52.220;104.306;2024-01-25T08:18:03;34.92;;;17.98;;
68140;SDS011;54941;52.220;104.306;2024-01-25T08:20:29;42.05;;;22.20;;
68140;SDS011;54941;52.220;104.306;2024-01-25T08:22:57;40.50;;;20.13;;
68140;SDS011;54941;52.220;104.306;2024-01-25T08:25:23;40.08;;;20.52;;
68140;SDS011;54941;52.220;104.306;2024-01-25T08:27:50;41.40;;;21.48;;
68140;SDS011;54941;52.220;104.306;2024-01-25T08:30:16;47.10;;;21.65;;
68140;SDS011;54941;52.220;104.306;2024-01-25T08:32:42;51.10;;;23.75;;
68140;SDS011;54941;52.220;104.306;2024-01-25T08:35:08;53.28;;;25.80;;
68140;SDS011;54941;52.220;104.306;2024-01-25T08:37:35;55.75;;;28.10;;
68140;SDS011;54941;52.220;104.306;2024-01-25T08:40:02;62.05;;;26.02;;
68140;SDS011;54941;52.220;104.306;2024-01-25T08:42:29;84.82;;;36.45;;
68140;SDS011;54941;52.220;104.306;2024-01-25T08:44:55;99.68;;;41.47;;
68140;SDS011;54941;52.220;104.306;2024-01-25T08:47:21;98.10;;;44.92;;
68140;SDS011;54941;52.220;104.306;2024-01-25T08:49:47;101.07;;;44.05;;
68140;SDS011;54941;52.220;104.306;2024-01-25T08:52:14;93.18;;;38.67;;
68140;SDS011;54941;52.220;104.306;2024-01-25T08:54:40;103.32;;;44.25;;
68140;SDS011;54941;52.220;104.306;2024-01-25T08:57:07;82.35;;;41.45;;
68140;SDS011;54941;52.220;104.306;2024-01-25T08:59:34;82.80;;;38.95;;
68140;SDS011;54941;52.220;104.306;2024-01-25T09:02:00;77.05;;;33.38;;
68140;SDS011;54941;52.220;104.306;2024-01-25T09:04:26;37.70;;;19.35;;
68140;SDS011;54941;52.220;104.306;2024-01-25T09:06:53;45.50;;;19.50;;
68140;SDS011;54941;52.220;104.306;2024-01-25T09:09:19;36.88;;;16.65;;
68140;SDS011;54941;52.220;104.306;2024-01-25T09:11:45;32.22;;;16.23;;
68140;SDS011;54941;52.220;104.306;2024-01-25T09:14:12;35.58;;;13.23;;
68140;SDS011;54941;52.220;104.306;2024-01-25T09:16:39;26.42;;;12.65;;
68140;SDS011;54941;52.220;104.306;2024-01-25T09:19:05;40.50;;;17.65;;
68140;SDS011;54941;52.220;104.306;2024-01-25T09:21:31;64.55;;;26.35;;
68140;SDS011;54941;52.220;104.306;2024-01-25T09:23:57;68.32;;;28.95;;
68140;SDS011;54941;52.220;104.306;2024-01-25T09:26:23;61.22;;;26.30;;
68140;SDS011;54941;52.220;104.306;2024-01-25T09:28:49;54.35;;;23.77;;
68140;SDS011;54941;52.220;104.306;2024-01-25T09:31:17;47.00;;;24.90;;
68140;SDS011;54941;52.220;104.306;2024-01-25T09:33:43;49.28;;;24.42;;
68140;SDS011;54941;52.220;104.306;2024-01-25T09:36:09;50.30;;;25.27;;
68140;SDS011;54941;52.220;104.306;2024-01-25T09:38:36;53.80;;;23.40;;
68140;SDS011;54941;52.220;104.306;2024-01-25T09:41:02;69.53;;;31.88;;
68140;SDS011;54941;52.220;104.306;2024-01-25T09:43:28;58.42;;;28.67;;
68140;SDS011;54941;52.220;104.306;2024-01-25T09:45:54;74.07;;;31.25;;
68140;SDS011;54941;52.220;104.306;2024-01-25T09:48:22;68.50;;;29.70;;
68140;SDS011;54941;52.220;104.306;2024-01-25T09:50:48;53.20;;;24.75;;
68140;SDS011;54941;52.220;104.306;2024-01-25T09:53:16;57.78;;;22.30;;
68140;SDS011;54941;52.220;104.306;2024-01-25T09:55:46;69.90;;;33.30;;
68140;SDS011;54941;52.220;104.306;2024-01-25T09:58:23;70.97;;;28.83;;
68140;SDS011;54941;52.220;104.306;2024-01-25T10:00:52;75.32;;;38.60;;
68140;SDS011;54941;52.220;104.306;2024-01-25T10:03:18;93.65;;;42.88;;
68140;SDS011;54941;52.220;104.306;2024-01-25T10:05:46;106.15;;;49.22;;
68140;SDS011;54941;52.220;104.306;2024-01-25T10:08:12;81.85;;;38.22;;
68140;SDS011;54941;52.220;104.306;2024-01-25T10:10:39;77.22;;;36.10;;
68140;SDS011;54941;52.220;104.306;2024-01-25T10:13:05;71.70;;;33.90;;
68140;SDS011;54941;52.220;104.306;2024-01-25T10:15:31;75.10;;;33.45;;
68140;SDS011;54941;52.220;104.306;2024-01-25T10:17:59;90.45;;;40.08;;
68140;SDS011;54941;52.220;104.306;2024-01-25T10:20:25;87.03;;;37.13;;
68140;SDS011;54941;52.220;104.306;2024-01-25T10:22:53;87.55;;;37.03;;
68140;SDS011;54941;52.220;104.306;2024-01-25T10:25:19;102.95;;;46.88;;
68140;SDS011;54941;52.220;104.306;2024-01-25T10:27:45;94.55;;;43.53;;
68140;SDS011;54941;52.220;104.306;2024-01-25T10:30:12;87.57;;;35.22;;
68140;SDS011;54941;52.220;104.306;2024-01-25T10:32:40;78.72;;;34.63;;
68140;SDS011;54941;52.220;104.306;2024-01-25T10:35:07;83.38;;;39.63;;
68140;SDS011;54941;52.220;104.306;2024-01-25T10:37:34;89.82;;;43.05;;
68140;SDS011;54941;52.220;104.306;2024-01-25T10:40:03;96.95;;;42.33;;
68140;SDS011;54941;52.220;104.306;2024-01-25T10:42:30;87.55;;;36.13;;
68140;SDS011;54941;52.220;104.306;2024-01-25T10:44:56;90.55;;;38.90;;
68140;SDS011;54941;52.220;104.306;2024-01-25T10:47:23;98.03;;;44.00;;
68140;SDS011;54941;52.220;104.306;2024-01-25T10:49:49;89.95;;;39.63;;
68140;SDS011;54941;52.220;104.306;2024-01-25T10:52:17;99.20;;;41.45;;
68140;SDS011;54941;52.220;104.306;2024-01-25T10:54:44;95.10;;;45.45;;
68140;SDS011;54941;52.220;104.306;2024-01-25T10:57:11;98.60;;;44.42;;
68140;SDS011;54941;52.220;104.306;2024-01-25T10:59:38;92.25;;;45.35;;
68140;SDS011;54941;52.220;104.306;2024-01-25T11:02:04;91.32;;;45.00;;
68140;SDS011;54941;52.220;104.306;2024-01-25T11:04:31;90.93;;;43.13;;
68140;SDS011;54941;52.220;104.306;2024-01-25T11:07:04;93.15;;;43.55;;
68140;SDS011;54941;52.220;104.306;2024-01-25T11:09:32;83.40;;;36.45;;
68140;SDS011;54941;52.220;104.306;2024-01-25T11:12:00;92.43;;;41.22;;
68140;SDS011;54941;52.220;104.306;2024-01-25T11:14:28;97.70;;;47.30;;
68140;SDS011;54941;52.220;104.306;2024-01-25T11:16:54;82.85;;;36.88;;
68140;SDS011;54941;52.220;104.306;2024-01-25T11:19:21;76.63;;;33.00;;
68140;SDS011;54941;52.220;104.306;2024-01-25T11:21:47;75.10;;;34.72;;
68140;SDS011;54941;52.220;104.306;2024-01-25T11:24:15;71.68;;;34.15;;
68140;SDS011;54941;52.220;104.306;2024-01-25T11:26:42;75.25;;;34.05;;
68140;SDS011;54941;52.220;104.306;2024-01-25T11:29:09;73.22;;;33.78;;
68140;SDS011;54941;52.220;104.306;2024-01-25T11:31:37;66.05;;;32.65;;
68140;SDS011;54941;52.220;104.306;2024-01-25T11:34:03;92.82;;;39.17;;
68140;SDS011;54941;52.220;104.306;2024-01-25T11:36:29;102.72;;;47.75;;
68140;SDS011;54941;52.220;104.306;2024-01-25T11:38:55;102.05;;;46.20;;
68140;SDS011;54941;52.220;104.306;2024-01-25T11:41:21;75.57;;;35.75;;
68140;SDS011;54941;52.220;104.306;2024-01-25T11:43:48;46.75;;;20.88;;
68140;SDS011;54941;52.220;104.306;2024-01-25T11:46:14;57.38;;;28.85;;
68140;SDS011;54941;52.220;104.306;2024-01-25T11:48:43;88.95;;;45.20;;
68140;SDS011;54941;52.220;104.306;2024-01-25T11:51:09;109.20;;;46.95;;
68140;SDS011;54941;52.220;104.306;2024-01-25T11:53:36;87.53;;;41.97;;
68140;SDS011;54941;52.220;104.306;2024-01-25T11:56:02;92.93;;;43.30;;
68140;SDS011;54941;52.220;104.306;2024-01-25T11:58:30;83.38;;;39.08;;
68140;SDS011;54941;52.220;104.306;2024-01-25T12:00:56;71.00;;;34.38;;
68140;SDS011;54941;52.220;104.306;2024-01-25T12:03:22;77.28;;;33.03;;
68140;SDS011;54941;52.220;104.306;2024-01-25T12:05:51;102.25;;;49.63;;
68140;SDS011;54941;52.220;104.306;2024-01-25T12:08:17;73.90;;;36.50;;
68140;SDS011;54941;52.220;104.306;2024-01-25T12:10:43;38.08;;;15.65;;
68140;SDS011;54941;52.220;104.306;2024-01-25T12:13:10;28.83;;;12.80;;
68140;SDS011;54941;52.220;104.306;2024-01-25T12:15:36;24.98;;;10.02;;
68140;SDS011;54941;52.220;104.306;2024-01-25T12:18:02;15.52;;;7.78;;
68140;SDS011;54941;52.220;104.306;2024-01-25T12:20:30;15.27;;;7.22;;
68140;SDS011;54941;52.220;104.306;2024-01-25T12:22:59;10.70;;;4.35;;
68140;SDS011;54941;52.220;104.306;2024-01-25T12:25:25;15.20;;;5.70;;
68140;SDS011;54941;52.220;104.306;2024-01-25T12:27:52;11.02;;;3.80;;
68140;SDS011;54941;52.220;104.306;2024-01-25T12:30:19;8.52;;;3.78;;
68140;SDS011;54941;52.220;104.306;2024-01-25T12:32:47;7.72;;;3.45;;
68140;SDS011;54941;52.220;104.306;2024-01-25T12:35:14;8.48;;;3.45;;
68140;SDS011;54941;52.220;104.306;2024-01-25T12:37:40;10.57;;;5.28;;
68140;SDS011;54941;52.220;104.306;2024-01-25T12:40:08;32.85;;;13.90;;
68140;SDS011;54941;52.220;104.306;2024-01-25T12:42:35;26.48;;;12.98;;
68140;SDS011;54941;52.220;104.306;2024-01-25T12:45:01;34.20;;;16.23;;
68140;SDS011;54941;52.220;104.306;2024-01-25T12:47:29;33.90;;;16.38;;
68140;SDS011;54941;52.220;104.306;2024-01-25T12:49:55;35.60;;;16.08;;
68140;SDS011;54941;52.220;104.306;2024-01-25T12:52:21;35.53;;;15.40;;
68140;SDS011;54941;52.220;104.306;2024-01-25T12:54:47;35.22;;;16.00;;
68140;SDS011;54941;52.220;104.306;2024-01-25T12:57:15;34.33;;;16.55;;
68140;SDS011;54941;52.220;104.306;2024-01-25T12:59:41;30.35;;;14.80;;
68140;SDS011;54941;52.220;104.306;2024-01-25T13:02:08;28.80;;;12.65;;
68140;SDS011;54941;52.220;104.306;2024-01-25T13:04:35;32.80;;;14.73;;
68140;SDS011;54941;52.220;104.306;2024-01-25T13:07:01;29.33;;;11.50;;
68140;SDS011;54941;52.220;104.306;2024-01-25T13:09:28;27.05;;;12.70;;
68140;SDS011;54941;52.220;104.306;2024-01-25T13:11:54;28.25;;;15.18;;
68140;SDS011;54941;52.220;104.306;2024-01-25T13:14:21;35.13;;;17.33;;
68140;SDS011;54941;52.220;104.306;2024-01-25T13:16:48;39.03;;;15.43;;
68140;SDS011;54941;52.220;104.306;2024-01-25T13:19:14;33.30;;;16.98;;
68140;SDS011;54941;52.220;104.306;2024-01-25T13:21:40;27.10;;;13.13;;
68140;SDS011;54941;52.220;104.306;2024-01-25T13:24:07;25.63;;;12.48;;
68140;SDS011;54941;52.220;104.306;2024-01-25T13:26:33;25.58;;;14.00;;
68140;SDS011;54941;52.220;104.306;2024-01-25T13:29:01;24.85;;;14.48;;
68140;SDS011;54941;52.220;104.306;2024-01-25T13:31:28;27.60;;;13.52;;
68140;SDS011;54941;52.220;104.306;2024-01-25T13:33:54;22.60;;;11.00;;
68140;SDS011;54941;52.220;104.306;2024-01-25T13:36:20;19.85;;;9.02;;
68140;SDS011;54941;52.220;104.306;2024-01-25T13:38:47;20.60;;;7.93;;
68140;SDS011;54941;52.220;104.306;2024-01-25T13:41:13;20.88;;;8.60;;
68140;SDS011;54941;52.220;104.306;2024-01-25T13:43:39;18.25;;;8.30;;
68140;SDS011;54941;52.220;104.306;2024-01-25T13:46:06;18.20;;;9.60;;
68140;SDS011;54941;52.220;104.306;2024-01-25T13:48:33;18.58;;;8.73;;
68140;SDS011;54941;52.220;104.306;2024-01-25T13:50:59;19.55;;;9.20;;
68140;SDS011;54941;52.220;104.306;2024-01-25T13:53:26;17.95;;;7.93;;
68140;SDS011;54941;52.220;104.306;2024-01-25T13:55:52;17.98;;;8.93;;